Time;durP1;ratioP1;P1;durP2;ratioP2;P2;SDS_P1;SDS_P2;PMS_P1;PMS_P2;Temp;Humidity;BMP_temperature;BMP_pressure;BME280_temperature;BME280_humidity;BME280_pressure;Samples;Min_cycle;Max_cycle;Signal;HPM_P1;HPM_P2
2022/08/16 00:01:05;;;;;;;16.52;14.85;;;;;;;;;;5021762;28;20725;-55
2022/08/16 00:03:31;;;;;;;12.80;11.77;;;;;;;;;;5018276;28;20240;-56
2022/08/16 00:05:57;;;;;;;13.63;12.55;;;;;;;;;;5013233;28;20801;-55
2022/08/16 00:08:25;;;;;;;12.43;11.38;;;;;;;;;;5021204;28;20227;-55
2022/08/16 00:10:51;;;;;;;12.55;11.35;;;;;;;;;;5014865;28;20928;-57
2022/08/16 00:13:18;;;;;;;13.27;12.07;;;;;;;;;;5007377;28;20255;-55
2022/08/16 00:15:46;;;;;;;13.80;12.57;;;;;;;;;;5015415;28;20232;-56
2022/08/16 00:18:13;;;;;;;12.05;10.98;;;;;;;;;;5014232;28;20347;-57
2022/08/16 00:20:40;;;;;;;13.68;12.23;;;;;;;;;;5020382;28;20230;-56
2022/08/16 00:23:07;;;;;;;14.10;12.57;;;;;;;;;;5006964;28;20814;-56
2022/08/16 00:25:35;;;;;;;13.00;11.90;;;;;;;;;;5017847;28;20714;-56
2022/08/16 00:28:01;;;;;;;12.20;10.95;;;;;;;;;;5019370;28;20228;-55
2022/08/16 00:30:28;;;;;;;12.60;11.50;;;;;;;;;;5016942;28;20228;-56
2022/08/16 00:32:56;;;;;;;11.77;10.68;;;;;;;;;;5015135;28;20829;-56
2022/08/16 00:35:24;;;;;;;12.40;11.30;;;;;;;;;;5017831;28;20240;-57
2022/08/16 00:37:50;;;;;;;13.68;12.23;;;;;;;;;;5018548;28;20240;-55
2022/08/16 00:40:20;;;;;;;12.13;10.93;;;;;;;;;;5019616;28;20842;-56
2022/08/16 00:42:48;;;;;;;12.68;11.50;;;;;;;;;;5019021;28;20251;-56
2022/08/16 00:45:30;;;;;;;12.93;11.57;;;;;;;;;;5015980;28;20243;-56
2022/08/16 00:47:56;;;;;;;12.75;11.30;;;;;;;;;;5018512;28;20233;-55
2022/08/16 00:50:25;;;;;;;11.43;10.43;;;;;;;;;;5021806;28;20232;-57
2022/08/16 00:52:51;;;;;;;12.02;10.85;;;;;;;;;;5018583;28;20904;-56
2022/08/16 00:55:17;;;;;;;12.75;11.75;;;;;;;;;;5022818;28;20243;-56
2022/08/16 00:57:44;;;;;;;12.10;10.90;;;;;;;;;;5015347;28;20241;-56
2022/08/16 01:00:12;;;;;;;12.25;11.05;;;;;;;;;;5022423;28;20252;-55
2022/08/16 01:02:39;;;;;;;12.10;11.10;;;;;;;;;;5020841;28;20239;-57
2022/08/16 01:05:05;;;;;;;12.50;11.40;;;;;;;;;;5019678;28;20240;-57
2022/08/16 01:07:32;;;;;;;14.35;11.23;;;;;;;;;;5015646;28;20258;-56
2022/08/16 01:09:58;;;;;;;11.70;10.60;;;;;;;;;;5021247;28;20290;-56
2022/08/16 01:12:24;;;;;;;11.55;10.55;;;;;;;;;;5023360;28;20237;-55
2022/08/16 01:14:53;;;;;;;12.38;11.25;;;;;;;;;;5021007;28;20737;-56
2022/08/16 01:17:21;;;;;;;13.15;11.85;;;;;;;;;;5014841;28;20332;-56
2022/08/16 01:19:49;;;;;;;11.60;10.60;;;;;;;;;;5019009;28;20232;-56
2022/08/16 01:22:19;;;;;;;12.45;11.32;;;;;;;;;;5021618;28;20336;-56
2022/08/16 01:24:49;;;;;;;13.57;12.38;;;;;;;;;;5016336;28;20255;-55
2022/08/16 01:27:18;;;;;;;13.10;11.82;;;;;;;;;;5020481;28;20244;-56
2022/08/16 01:29:47;;;;;;;13.77;12.43;;;;;;;;;;5021853;28;20604;-56
2022/08/16 01:32:13;;;;;;;13.82;12.60;;;;;;;;;;5020910;28;20339;-55
2022/08/16 01:34:40;;;;;;;13.45;12.32;;;;;;;;;;5017753;28;20658;-56
2022/08/16 01:37:08;;;;;;;13.18;12.07;;;;;;;;;;5021457;28;20501;-55
2022/08/16 01:39:35;;;;;;;13.18;12.07;;;;;;;;;;5019967;28;20240;-55
2022/08/16 01:42:03;;;;;;;12.35;11.30;;;;;;;;;;5025727;28;20319;-55
2022/08/16 01:44:30;;;;;;;12.15;11.00;;;;;;;;;;5025924;28;20699;-56
2022/08/16 01:46:56;;;;;;;12.68;11.45;;;;;;;;;;5024581;28;20232;-55
2022/08/16 01:49:26;;;;;;;12.65;11.43;;;;;;;;;;5027350;28;20276;-55
2022/08/16 01:51:54;;;;;;;13.75;12.27;;;;;;;;;;5023023;28;20240;-55
2022/08/16 01:54:21;;;;;;;13.27;12.07;;;;;;;;;;5020106;28;20232;-55
2022/08/16 01:56:47;;;;;;;13.05;11.63;;;;;;;;;;5022158;28;20729;-55
2022/08/16 01:59:15;;;;;;;13.05;11.95;;;;;;;;;;5025791;28;20236;-57
2022/08/16 02:01:42;;;;;;;14.65;13.35;;;;;;;;;;5027859;28;20236;-56
2022/08/16 02:04:08;;;;;;;13.98;12.52;;;;;;;;;;5018621;28;20522;-55
2022/08/16 02:06:34;;;;;;;12.57;11.30;;;;;;;;;;5019426;28;20752;-55
2022/08/16 02:09:01;;;;;;;13.52;12.32;;;;;;;;;;5020675;28;20237;-57
2022/08/16 02:11:28;;;;;;;14.00;12.70;;;;;;;;;;5019982;28;20228;-56
2022/08/16 02:13:55;;;;;;;15.25;13.68;;;;;;;;;;5024029;28;20694;-55
2022/08/16 02:16:22;;;;;;;13.65;12.55;;;;;;;;;;5021004;28;20240;-54
2022/08/16 02:18:49;;;;;;;14.60;13.23;;;;;;;;;;5024817;28;20255;-56
2022/08/16 02:21:16;;;;;;;13.32;12.13;;;;;;;;;;5025382;28;20229;-57
2022/08/16 02:23:42;;;;;;;13.65;12.35;;;;;;;;;;5025251;28;20240;-55
2022/08/16 02:26:08;;;;;;;13.98;12.70;;;;;;;;;;5024308;28;20247;-55
2022/08/16 02:28:36;;;;;;;14.60;13.10;;;;;;;;;;5025149;28;20256;-56
2022/08/16 02:31:04;;;;;;;13.93;12.52;;;;;;;;;;5022796;28;20240;-56
2022/08/16 02:33:32;;;;;;;14.95;13.75;;;;;;;;;;5020119;28;20283;-56
2022/08/16 02:35:58;;;;;;;14.95;13.65;;;;;;;;;;5015653;28;20891;-56
2022/08/16 02:38:25;;;;;;;15.27;13.90;;;;;;;;;;5026323;28;20232;-56
2022/08/16 02:40:51;;;;;;;14.55;13.27;;;;;;;;;;5025326;28;20228;-57
2022/08/16 02:43:18;;;;;;;14.98;13.50;;;;;;;;;;5024459;28;20241;-56
2022/08/16 02:45:44;;;;;;;15.20;13.77;;;;;;;;;;5021412;28;20252;-55
2022/08/16 02:48:11;;;;;;;15.20;13.85;;;;;;;;;;5023059;28;20231;-56
2022/08/16 02:50:38;;;;;;;14.60;13.30;;;;;;;;;;5022835;28;20262;-56
2022/08/16 02:53:05;;;;;;;14.10;12.75;;;;;;;;;;5013967;28;20237;-57
2022/08/16 02:55:31;;;;;;;15.25;13.95;;;;;;;;;;5018006;28;20235;-56
2022/08/16 02:57:58;;;;;;;14.48;13.20;;;;;;;;;;5017150;28;20240;-57
2022/08/16 03:00:25;;;;;;;16.27;14.70;;;;;;;;;;5021158;28;20236;-56
2022/08/16 03:02:54;;;;;;;15.38;14.07;;;;;;;;;;5020879;28;20237;-56
2022/08/16 03:05:20;;;;;;;16.48;14.98;;;;;;;;;;5024908;28;20233;-55
2022/08/16 03:07:48;;;;;;;15.88;14.38;;;;;;;;;;5026601;28;20228;-55
2022/08/16 03:10:14;;;;;;;15.75;14.25;;;;;;;;;;5026374;28;20666;-55
2022/08/16 03:12:42;;;;;;;16.88;15.20;;;;;;;;;;5018003;28;20225;-55
2022/08/16 03:15:11;;;;;;;15.20;13.90;;;;;;;;;;5021740;28;20328;-54
2022/08/16 03:17:37;;;;;;;16.85;15.25;;;;;;;;;;5019485;28;20228;-57
2022/08/16 03:20:04;;;;;;;16.98;15.48;;;;;;;;;;5023872;28;20239;-57
2022/08/16 03:22:30;;;;;;;15.20;13.82;;;;;;;;;;5024756;28;20241;-57
2022/08/16 03:24:59;;;;;;;16.02;14.63;;;;;;;;;;5026479;28;20231;-55
2022/08/16 03:27:26;;;;;;;14.77;13.57;;;;;;;;;;5010874;28;20225;-55
2022/08/16 03:29:52;;;;;;;17.30;15.68;;;;;;;;;;5014864;28;20240;-56
2022/08/16 03:32:19;;;;;;;16.13;14.52;;;;;;;;;;5022619;28;20240;-56
2022/08/16 03:34:46;;;;;;;16.52;15.00;;;;;;;;;;5013859;28;20239;-57
2022/08/16 03:37:12;;;;;;;16.73;15.30;;;;;;;;;;5023346;28;20244;-57
2022/08/16 03:39:39;;;;;;;16.13;14.73;;;;;;;;;;5024482;28;20228;-57
2022/08/16 03:42:07;;;;;;;16.45;15.05;;;;;;;;;;5018219;28;20237;-57
2022/08/16 03:44:34;;;;;;;17.25;15.52;;;;;;;;;;5013584;28;20319;-57
2022/08/16 03:47:01;;;;;;;17.02;15.52;;;;;;;;;;5021060;28;20324;-56
2022/08/16 03:49:28;;;;;;;16.23;14.63;;;;;;;;;;5025126;28;20240;-56
2022/08/16 03:51:55;;;;;;;18.08;16.33;;;;;;;;;;5016040;28;20237;-57
2022/08/16 03:54:21;;;;;;;18.27;16.58;;;;;;;;;;5020627;28;20259;-57
2022/08/16 03:56:47;;;;;;;15.60;14.10;;;;;;;;;;5016745;28;20228;-56
2022/08/16 03:59:15;;;;;;;14.55;13.25;;;;;;;;;;5017121;28;20814;-57
2022/08/16 04:01:41;;;;;;;17.08;15.52;;;;;;;;;;5024853;28;20225;-58
2022/08/16 04:04:08;;;;;;;17.10;15.40;;;;;;;;;;5023500;28;20242;-56
2022/08/16 04:06:34;;;;;;;15.98;14.50;;;;;;;;;;5022166;28;20248;-56
2022/08/16 04:09:00;;;;;;;16.90;15.40;;;;;;;;;;5024674;28;20240;-56
2022/08/16 04:11:27;;;;;;;17.92;16.27;;;;;;;;;;5019294;28;20244;-56
2022/08/16 04:13:53;;;;;;;16.48;15.00;;;;;;;;;;5024021;28;20596;-56
2022/08/16 04:16:21;;;;;;;15.70;14.27;;;;;;;;;;5017059;28;20412;-57
2022/08/16 04:18:48;;;;;;;17.00;15.40;;;;;;;;;;5024596;28;20232;-55
2022/08/16 04:21:14;;;;;;;15.65;14.35;;;;;;;;;;5023222;28;20236;-55
2022/08/16 04:23:40;;;;;;;17.58;16.00;;;;;;;;;;5020129;28;20229;-56
2022/08/16 04:26:07;;;;;;;16.35;14.80;;;;;;;;;;5018587;28;20241;-55
2022/08/16 04:28:34;;;;;;;16.90;15.38;;;;;;;;;;5017331;28;20713;-55
2022/08/16 04:31:00;;;;;;;15.85;14.52;;;;;;;;;;5024260;28;20319;-55
2022/08/16 04:33:28;;;;;;;17.77;15.95;;;;;;;;;;5021845;28;20237;-56
2022/08/16 04:35:56;;;;;;;16.17;14.65;;;;;;;;;;5022902;28;20260;-56
2022/08/16 04:38:22;;;;;;;16.42;14.73;;;;;;;;;;5013362;28;21887;-56
2022/08/16 04:40:49;;;;;;;17.30;15.70;;;;;;;;;;5015527;28;20240;-56
2022/08/16 04:43:15;;;;;;;17.05;15.45;;;;;;;;;;5021040;28;20710;-57
2022/08/16 04:45:42;;;;;;;15.50;13.98;;;;;;;;;;5021379;28;20232;-55
2022/08/16 04:48:09;;;;;;;16.27;14.77;;;;;;;;;;5020105;28;20228;-56
2022/08/16 04:50:36;;;;;;;16.00;14.40;;;;;;;;;;5020507;28;20660;-57
2022/08/16 04:53:03;;;;;;;16.33;14.82;;;;;;;;;;5019170;28;20239;-56
2022/08/16 04:55:30;;;;;;;18.35;16.45;;;;;;;;;;5018154;28;20778;-56
2022/08/16 04:57:57;;;;;;;18.05;16.40;;;;;;;;;;5019251;28;20239;-55
2022/08/16 05:00:24;;;;;;;16.88;15.38;;;;;;;;;;5022433;28;20247;-56
2022/08/16 05:02:51;;;;;;;15.98;14.48;;;;;;;;;;5021497;28;20232;-55
2022/08/16 05:05:18;;;;;;;17.98;16.35;;;;;;;;;;5019709;28;20254;-56
2022/08/16 05:07:45;;;;;;;16.98;15.38;;;;;;;;;;5012884;28;20240;-56
2022/08/16 05:10:12;;;;;;;16.88;15.20;;;;;;;;;;5020553;28;20240;-57
2022/08/16 05:12:38;;;;;;;17.27;15.57;;;;;;;;;;5022908;28;20228;-57
2022/08/16 05:15:05;;;;;;;16.17;14.82;;;;;;;;;;5012858;28;20735;-56
2022/08/16 05:17:31;;;;;;;16.17;14.73;;;;;;;;;;5016646;28;20229;-56
2022/08/16 05:19:58;;;;;;;17.05;15.48;;;;;;;;;;5027923;28;20244;-58
2022/08/16 05:22:24;;;;;;;16.02;14.27;;;;;;;;;;5023448;28;20235;-55
2022/08/16 05:24:52;;;;;;;16.17;14.63;;;;;;;;;;5024189;28;20240;-57
2022/08/16 05:27:18;;;;;;;15.90;14.50;;;;;;;;;;5026026;28;20324;-56
2022/08/16 05:29:45;;;;;;;21.05;17.10;;;;;;;;;;5026687;28;20754;-56
2022/08/16 05:32:11;;;;;;;17.88;16.08;;;;;;;;;;5019529;28;20221;-55
2022/08/16 05:34:37;;;;;;;14.90;13.65;;;;;;;;;;5027573;28;20233;-56
2022/08/16 05:37:04;;;;;;;14.05;12.60;;;;;;;;;;5019934;28;20233;-56
2022/08/16 05:39:30;;;;;;;15.10;13.80;;;;;;;;;;5023076;28;20233;-57
2022/08/16 05:41:58;;;;;;;14.27;13.07;;;;;;;;;;5025691;28;20224;-56
2022/08/16 05:44:24;;;;;;;19.83;16.90;;;;;;;;;;5024854;28;20254;-56
2022/08/16 05:46:51;;;;;;;17.48;15.88;;;;;;;;;;5021609;28;20242;-57
2022/08/16 05:49:17;;;;;;;18.23;16.52;;;;;;;;;;5017393;28;20229;-57
2022/08/16 05:51:44;;;;;;;15.63;14.13;;;;;;;;;;5024024;28;20232;-57
2022/08/16 05:54:11;;;;;;;16.75;15.20;;;;;;;;;;5023764;28;20237;-58
2022/08/16 05:56:38;;;;;;;17.60;15.88;;;;;;;;;;5018078;28;20277;-56
2022/08/16 05:59:05;;;;;;;15.68;14.20;;;;;;;;;;5022552;28;20236;-56
2022/08/16 06:01:32;;;;;;;20.38;15.15;;;;;;;;;;5024346;28;20344;-56
2022/08/16 06:03:58;;;;;;;18.13;16.52;;;;;;;;;;5013141;28;20237;-56
2022/08/16 06:06:24;;;;;;;17.58;15.90;;;;;;;;;;5023347;28;20244;-55
2022/08/16 06:08:51;;;;;;;17.58;15.88;;;;;;;;;;5014044;28;20239;-56
2022/08/16 06:11:17;;;;;;;17.67;15.98;;;;;;;;;;5021371;28;20241;-56
2022/08/16 06:13:46;;;;;;;18.23;16.02;;;;;;;;;;5022430;28;20224;-56
2022/08/16 06:16:13;;;;;;;17.67;15.98;;;;;;;;;;5018748;28;20771;-56
2022/08/16 06:18:43;;;;;;;17.25;15.43;;;;;;;;;;5020028;28;20751;-57
2022/08/16 06:21:10;;;;;;;18.55;16.60;;;;;;;;;;5018182;28;20225;-55
2022/08/16 06:23:36;;;;;;;17.48;15.57;;;;;;;;;;5020265;28;20734;-55
2022/08/16 06:26:02;;;;;;;16.90;15.23;;;;;;;;;;5022241;28;20241;-55
2022/08/16 06:28:29;;;;;;;16.23;14.73;;;;;;;;;;5023867;28;20231;-55
2022/08/16 06:30:55;;;;;;;14.95;13.55;;;;;;;;;;5022899;28;21071;-55
2022/08/16 06:33:23;;;;;;;14.98;13.40;;;;;;;;;;5021619;28;20231;-55
2022/08/16 06:35:50;;;;;;;14.52;13.15;;;;;;;;;;5017092;28;20879;-55
2022/08/16 06:38:16;;;;;;;14.93;13.43;;;;;;;;;;5019640;28;20240;-55
2022/08/16 06:40:42;;;;;;;15.27;13.88;;;;;;;;;;5023579;28;20229;-55
2022/08/16 06:43:09;;;;;;;13.07;11.88;;;;;;;;;;5018529;28;20403;-55
2022/08/16 06:45:36;;;;;;;15.55;14.02;;;;;;;;;;5018970;28;20240;-55
2022/08/16 06:48:03;;;;;;;16.67;15.07;;;;;;;;;;5018641;28;20244;-55
2022/08/16 06:50:31;;;;;;;16.45;14.75;;;;;;;;;;5023926;28;20229;-55
2022/08/16 06:52:57;;;;;;;15.88;14.27;;;;;;;;;;5021374;28;20236;-56
2022/08/16 06:55:24;;;;;;;15.85;14.35;;;;;;;;;;5023364;28;20267;-56
2022/08/16 06:57:51;;;;;;;15.13;13.70;;;;;;;;;;5022909;28;20244;-57
2022/08/16 07:00:17;;;;;;;15.02;13.70;;;;;;;;;;5014588;28;20240;-56
2022/08/16 07:02:45;;;;;;;16.83;15.38;;;;;;;;;;5019616;28;20225;-57
2022/08/16 07:05:12;;;;;;;14.93;12.98;;;;;;;;;;5020007;28;20268;-56
2022/08/16 07:07:41;;;;;;;14.18;12.70;;;;;;;;;;5021331;28;20235;-58
2022/08/16 07:10:08;;;;;;;20.30;14.38;;;;;;;;;;5022221;28;20232;-57
2022/08/16 07:12:35;;;;;;;16.10;14.60;;;;;;;;;;5021846;28;20236;-57
2022/08/16 07:15:03;;;;;;;15.07;13.77;;;;;;;;;;5014664;28;20236;-57
2022/08/16 07:17:31;;;;;;;14.75;13.38;;;;;;;;;;5020025;28;20287;-57
2022/08/16 07:19:57;;;;;;;16.90;15.25;;;;;;;;;;5024384;28;20687;-58
2022/08/16 07:22:23;;;;;;;16.30;14.68;;;;;;;;;;5021004;28;20236;-57
2022/08/16 07:24:51;;;;;;;19.40;17.42;;;;;;;;;;5020753;28;20245;-57
2022/08/16 07:27:18;;;;;;;15.20;13.70;;;;;;;;;;5020443;28;20803;-58
2022/08/16 07:29:44;;;;;;;14.50;13.10;;;;;;;;;;5022903;28;20244;-57
2022/08/16 07:32:11;;;;;;;15.50;14.07;;;;;;;;;;5019218;28;20233;-57
2022/08/16 07:34:37;;;;;;;13.15;11.95;;;;;;;;;;5021007;28;20255;-56
2022/08/16 07:37:05;;;;;;;14.88;13.45;;;;;;;;;;5023105;28;20236;-57
2022/08/16 07:39:31;;;;;;;13.88;12.57;;;;;;;;;;5018659;28;20584;-57
2022/08/16 07:41:59;;;;;;;16.33;14.77;;;;;;;;;;5019064;28;20294;-56
2022/08/16 07:44:25;;;;;;;14.93;13.52;;;;;;;;;;5024552;28;20232;-57
2022/08/16 07:46:51;;;;;;;14.45;12.95;;;;;;;;;;5011317;28;20237;-57
2022/08/16 07:49:18;;;;;;;13.32;12.00;;;;;;;;;;5017941;28;20239;-56
2022/08/16 07:51:45;;;;;;;15.45;14.05;;;;;;;;;;5023598;28;20750;-57
2022/08/16 07:54:11;;;;;;;16.48;14.98;;;;;;;;;;5019971;28;20290;-58
2022/08/16 07:56:37;;;;;;;13.48;12.25;;;;;;;;;;4986705;28;1029537;-56
2022/08/16 07:59:05;;;;;;;14.43;13.07;;;;;;;;;;5022824;28;20229;-56
2022/08/16 08:01:33;;;;;;;15.15;13.80;;;;;;;;;;5018075;28;20233;-57
2022/08/16 08:03:59;;;;;;;15.07;13.57;;;;;;;;;;5017825;28;20323;-56
2022/08/16 08:06:27;;;;;;;17.80;16.13;;;;;;;;;;5018203;28;20240;-56
2022/08/16 08:08:54;;;;;;;15.77;14.23;;;;;;;;;;5022349;28;20236;-58
2022/08/16 08:11:20;;;;;;;17.13;15.60;;;;;;;;;;5017914;28;20244;-57
2022/08/16 08:13:47;;;;;;;15.95;14.45;;;;;;;;;;5017277;28;20294;-57
2022/08/16 08:16:15;;;;;;;13.90;12.57;;;;;;;;;;5014356;28;20233;-57
2022/08/16 08:18:43;;;;;;;13.50;12.27;;;;;;;;;;5019525;28;20228;-57
2022/08/16 08:21:10;;;;;;;15.77;14.25;;;;;;;;;;5015931;28;20237;-57
2022/08/16 08:23:37;;;;;;;15.43;14.02;;;;;;;;;;5009500;28;20233;-57
2022/08/16 08:26:04;;;;;;;14.82;13.52;;;;;;;;;;5014684;28;20251;-58
2022/08/16 08:28:30;;;;;;;14.45;13.05;;;;;;;;;;5019708;28;20243;-57
2022/08/16 08:30:57;;;;;;;14.25;12.82;;;;;;;;;;5021720;28;20807;-56
2022/08/16 08:33:25;;;;;;;16.23;14.13;;;;;;;;;;5024880;28;20243;-57
2022/08/16 08:35:52;;;;;;;14.50;13.05;;;;;;;;;;5019878;28;20239;-56
2022/08/16 08:38:20;;;;;;;12.10;10.90;;;;;;;;;;5021138;28;20228;-57
2022/08/16 08:40:47;;;;;;;11.98;10.88;;;;;;;;;;5024456;28;20242;-57
2022/08/16 08:43:13;;;;;;;11.77;10.77;;;;;;;;;;5016860;28;20237;-57
2022/08/16 08:45:40;;;;;;;11.75;10.65;;;;;;;;;;5012537;28;20233;-56
2022/08/16 08:48:06;;;;;;;15.98;14.05;;;;;;;;;;5018864;28;20241;-57
2022/08/16 08:50:35;;;;;;;19.13;12.20;;;;;;;;;;5018762;28;20236;-57
2022/08/16 08:53:02;;;;;;;12.98;11.82;;;;;;;;;;5012585;28;20259;-57
2022/08/16 08:55:30;;;;;;;11.50;10.32;;;;;;;;;;5021088;28;20236;-56
2022/08/16 08:57:57;;;;;;;13.73;12.30;;;;;;;;;;5019314;28;20232;-57
2022/08/16 09:00:26;;;;;;;15.57;10.20;;;;;;;;;;5023817;28;20331;-57
2022/08/16 09:02:52;;;;;;;13.63;12.32;;;;;;;;;;5022663;28;20239;-58
2022/08/16 09:05:19;;;;;;;10.48;9.57;;;;;;;;;;5004699;28;20237;-57
2022/08/16 09:07:47;;;;;;;13.57;9.77;;;;;;;;;;5019930;28;20234;-56
2022/08/16 09:10:14;;;;;;;13.73;9.30;;;;;;;;;;5022350;28;20228;-57
2022/08/16 09:12:40;;;;;;;10.30;9.20;;;;;;;;;;5018692;28;20248;-58
2022/08/16 09:15:08;;;;;;;11.82;10.60;;;;;;;;;;5018070;28;20247;-57
2022/08/16 09:17:34;;;;;;;12.02;11.02;;;;;;;;;;5022171;28;20717;-56
2022/08/16 09:20:01;;;;;;;10.90;9.80;;;;;;;;;;5025180;28;20298;-58
2022/08/16 09:22:27;;;;;;;11.27;9.80;;;;;;;;;;5021504;28;20228;-57
2022/08/16 09:24:55;;;;;;;11.52;8.63;;;;;;;;;;5025771;28;20235;-57
2022/08/16 09:27:22;;;;;;;9.48;8.68;;;;;;;;;;5018973;28;20233;-56
2022/08/16 09:29:48;;;;;;;10.95;9.48;;;;;;;;;;5022065;28;20240;-58
2022/08/16 09:32:15;;;;;;;8.38;7.70;;;;;;;;;;5017051;28;20227;-56
2022/08/16 09:34:42;;;;;;;9.18;8.38;;;;;;;;;;5018450;28;20792;-56
2022/08/16 09:37:09;;;;;;;9.38;8.38;;;;;;;;;;5022832;28;20411;-56
2022/08/16 09:39:35;;;;;;;9.32;8.55;;;;;;;;;;5020927;28;20225;-58
2022/08/16 09:42:03;;;;;;;8.68;7.97;;;;;;;;;;5023686;28;20236;-55
2022/08/16 09:44:30;;;;;;;12.77;8.70;;;;;;;;;;5022335;28;20231;-56
2022/08/16 09:46:57;;;;;;;7.95;7.05;;;;;;;;;;5017601;28;20658;-56
2022/08/16 09:49:24;;;;;;;9.40;8.60;;;;;;;;;;5022964;28;20231;-56
2022/08/16 09:51:52;;;;;;;9.60;7.88;;;;;;;;;;5020162;28;20753;-57
2022/08/16 09:54:18;;;;;;;8.60;7.90;;;;;;;;;;5017891;28;20632;-55
2022/08/16 09:56:45;;;;;;;7.82;7.13;;;;;;;;;;5018181;28;20239;-57
2022/08/16 09:59:14;;;;;;;8.55;7.88;;;;;;;;;;5017356;28;20228;-57
2022/08/16 10:01:43;;;;;;;7.90;7.30;;;;;;;;;;5016281;28;20229;-58
2022/08/16 10:04:09;;;;;;;8.57;7.63;;;;;;;;;;5021674;28;20806;-56
2022/08/16 10:06:36;;;;;;;8.00;7.30;;;;;;;;;;5024759;28;20241;-56
2022/08/16 10:09:04;;;;;;;10.02;9.23;;;;;;;;;;5022980;28;20235;-57
2022/08/16 10:14:16;;;;;;;7.55;6.80;;;;;;;;;;5019413;28;20601;-57
2022/08/16 10:16:44;;;;;;;7.07;6.38;;;;;;;;;;5018784;28;20236;-56
2022/08/16 10:19:11;;;;;;;8.27;7.50;;;;;;;;;;5017013;28;20233;-56
2022/08/16 10:21:38;;;;;;;7.90;7.05;;;;;;;;;;5016462;28;20239;-56
2022/08/16 10:24:05;;;;;;;7.63;6.93;;;;;;;;;;5019058;28;20240;-58
2022/08/16 10:26:32;;;;;;;7.50;6.80;;;;;;;;;;5024147;28;20306;-56
2022/08/16 10:28:59;;;;;;;7.78;7.07;;;;;;;;;;5023548;28;20248;-56
2022/08/16 10:31:26;;;;;;;8.23;7.43;;;;;;;;;;5025318;28;20232;-58
2022/08/16 10:33:54;;;;;;;8.43;7.75;;;;;;;;;;5020849;28;20232;-58
2022/08/16 10:36:20;;;;;;;7.82;7.13;;;;;;;;;;5022078;28;20243;-56
2022/08/16 10:38:47;;;;;;;7.63;6.93;;;;;;;;;;5022804;28;20231;-56
2022/08/16 10:41:13;;;;;;;7.93;6.43;;;;;;;;;;5023220;28;20798;-57
2022/08/16 10:43:41;;;;;;;8.48;7.40;;;;;;;;;;5027846;28;20237;-58
2022/08/16 10:46:10;;;;;;;5.88;5.38;;;;;;;;;;5015248;28;20451;-57
2022/08/16 10:48:38;;;;;;;6.32;5.70;;;;;;;;;;5022109;28;20255;-57
2022/08/16 10:51:05;;;;;;;6.97;6.30;;;;;;;;;;5025868;28;20232;-55
2022/08/16 10:53:32;;;;;;;6.50;5.95;;;;;;;;;;5023123;28;20236;-58
2022/08/16 10:55:59;;;;;;;6.88;5.97;;;;;;;;;;5031182;28;20243;-57
2022/08/16 10:58:26;;;;;;;7.25;6.65;;;;;;;;;;5025624;28;20229;-56
2022/08/16 11:00:53;;;;;;;6.38;5.78;;;;;;;;;;5021470;28;20243;-57
2022/08/16 11:03:20;;;;;;;7.50;6.70;;;;;;;;;;5024326;28;20492;-56
2022/08/16 11:05:48;;;;;;;8.68;6.63;;;;;;;;;;5020249;28;20243;-57
2022/08/16 11:08:16;;;;;;;7.00;6.28;;;;;;;;;;5023633;28;20231;-57
2022/08/16 11:10:44;;;;;;;7.88;7.18;;;;;;;;;;5023360;28;20954;-56
2022/08/16 11:13:11;;;;;;;7.60;6.80;;;;;;;;;;5025081;28;20236;-55
2022/08/16 11:15:38;;;;;;;7.57;6.88;;;;;;;;;;5019963;28;20239;-57
2022/08/16 11:18:06;;;;;;;6.70;6.20;;;;;;;;;;5020215;28;20233;-55
2022/08/16 11:20:32;;;;;;;7.53;6.78;;;;;;;;;;5026365;28;20252;-57
2022/08/16 11:23:00;;;;;;;7.63;7.03;;;;;;;;;;5018916;28;20439;-56
2022/08/16 11:25:27;;;;;;;7.63;7.00;;;;;;;;;;5018299;28;20588;-56
2022/08/16 11:27:54;;;;;;;8.38;6.97;;;;;;;;;;5024283;28;20236;-56
2022/08/16 11:30:20;;;;;;;7.18;6.57;;;;;;;;;;5017111;28;20429;-55
2022/08/16 11:32:47;;;;;;;7.00;6.43;;;;;;;;;;5013511;28;20449;-55
2022/08/16 11:35:14;;;;;;;7.22;6.65;;;;;;;;;;5018003;28;21007;-58
2022/08/16 11:37:42;;;;;;;7.78;7.03;;;;;;;;;;5023974;28;20737;-56
2022/08/16 11:40:10;;;;;;;10.23;6.22;;;;;;;;;;5022769;28;20741;-56
2022/08/16 11:42:37;;;;;;;7.90;7.18;;;;;;;;;;5022136;28;20238;-57
2022/08/16 11:45:03;;;;;;;7.10;6.40;;;;;;;;;;5026208;28;20426;-57
2022/08/16 11:47:29;;;;;;;7.93;7.22;;;;;;;;;;5026708;28;20232;-57
2022/08/16 11:49:56;;;;;;;7.47;6.68;;;;;;;;;;5017443;28;20232;-59
2022/08/16 11:52:22;;;;;;;7.22;6.68;;;;;;;;;;5024322;28;20428;-55
2022/08/16 11:54:49;;;;;;;8.35;7.65;;;;;;;;;;5026352;28;20235;-55
2022/08/16 11:57:17;;;;;;;8.20;7.47;;;;;;;;;;5024348;28;20224;-55
2022/08/16 11:59:43;;;;;;;7.75;7.10;;;;;;;;;;5024912;28;20232;-55
2022/08/16 12:02:10;;;;;;;8.55;7.85;;;;;;;;;;5024315;28;20327;-56
2022/08/16 12:04:36;;;;;;;7.93;7.30;;;;;;;;;;5023247;28;20641;-55
2022/08/16 12:07:02;;;;;;;6.50;6.00;;;;;;;;;;5025394;28;20237;-56
2022/08/16 12:09:30;;;;;;;7.45;6.72;;;;;;;;;;5017241;28;20236;-55
2022/08/16 12:11:57;;;;;;;7.07;6.40;;;;;;;;;;5015004;28;20997;-54
2022/08/16 12:14:25;;;;;;;8.27;5.85;;;;;;;;;;5019206;28;20237;-54
2022/08/16 12:16:51;;;;;;;7.00;6.38;;;;;;;;;;5024837;28;20855;-56
2022/08/16 12:19:18;;;;;;;6.97;6.38;;;;;;;;;;5024047;28;20229;-55
2022/08/16 12:21:45;;;;;;;7.78;7.00;;;;;;;;;;5025534;28;20229;-56
2022/08/16 12:24:12;;;;;;;7.00;6.40;;;;;;;;;;5025631;28;20331;-55
2022/08/16 12:26:38;;;;;;;6.63;5.85;;;;;;;;;;5016815;28;20228;-56
2022/08/16 12:29:04;;;;;;;7.72;6.30;;;;;;;;;;5015303;28;20237;-54
2022/08/16 12:31:32;;;;;;;7.07;6.10;;;;;;;;;;5016641;28;20706;-54
2022/08/16 12:33:58;;;;;;;13.18;7.13;;;;;;;;;;5019053;28;20232;-59
2022/08/16 12:36:26;;;;;;;8.77;7.53;;;;;;;;;;5018205;28;20606;-55
2022/08/16 12:38:53;;;;;;;6.55;5.95;;;;;;;;;;5024942;28;20244;-57
2022/08/16 12:41:20;;;;;;;7.07;6.40;;;;;;;;;;5019594;28;20252;-56
2022/08/16 12:43:47;;;;;;;6.45;5.85;;;;;;;;;;5019983;28;20239;-55
2022/08/16 12:46:14;;;;;;;7.30;5.95;;;;;;;;;;5013914;28;20254;-55
2022/08/16 12:48:59;;;;;;;5.75;5.35;;;;;;;;;;5024016;28;20448;-54
2022/08/16 12:51:27;;;;;;;6.35;5.55;;;;;;;;;;5019082;28;20232;-55
2022/08/16 12:53:55;;;;;;;6.63;5.80;;;;;;;;;;5021706;28;20231;-55
2022/08/16 12:56:22;;;;;;;6.20;5.47;;;;;;;;;;5017586;28;20619;-54
2022/08/16 12:58:49;;;;;;;5.72;5.22;;;;;;;;;;5017952;28;20528;-55
2022/08/16 13:01:16;;;;;;;6.38;5.85;;;;;;;;;;5019831;28;20255;-55
2022/08/16 13:03:44;;;;;;;6.88;6.18;;;;;;;;;;5019816;28;20436;-55
2022/08/16 13:06:11;;;;;;;5.90;5.40;;;;;;;;;;5020810;28;20247;-55
2022/08/16 13:08:38;;;;;;;6.90;6.07;;;;;;;;;;5019729;28;20232;-54
2022/08/16 13:11:04;;;;;;;6.63;5.20;;;;;;;;;;5018353;28;20468;-54
2022/08/16 13:13:32;;;;;;;7.18;6.45;;;;;;;;;;5009074;28;20254;-56
2022/08/16 13:15:59;;;;;;;7.70;5.88;;;;;;;;;;5015444;28;20243;-55
2022/08/16 13:18:28;;;;;;;5.60;5.20;;;;;;;;;;5016760;28;21408;-55
2022/08/16 13:20:55;;;;;;;6.35;5.72;;;;;;;;;;5015042;28;20345;-55
2022/08/16 13:23:22;;;;;;;5.82;5.43;;;;;;;;;;5017072;28;20240;-54
2022/08/16 13:25:49;;;;;;;6.75;5.45;;;;;;;;;;5018172;28;20857;-54
2022/08/16 13:28:16;;;;;;;6.32;5.82;;;;;;;;;;5015500;28;20240;-54
2022/08/16 13:30:44;;;;;;;6.22;5.63;;;;;;;;;;5013828;28;20220;-55
2022/08/16 13:33:11;;;;;;;6.30;5.75;;;;;;;;;;5017054;28;20249;-54
2022/08/16 13:35:38;;;;;;;6.00;5.40;;;;;;;;;;5017278;28;20242;-54
2022/08/16 13:38:06;;;;;;;7.28;6.38;;;;;;;;;;5023101;28;20236;-60
2022/08/16 13:40:32;;;;;;;7.50;5.35;;;;;;;;;;5021625;28;20239;-55
2022/08/16 13:42:59;;;;;;;5.53;5.03;;;;;;;;;;5030512;28;20782;-56
2022/08/16 13:45:26;;;;;;;5.90;5.40;;;;;;;;;;5025637;28;20243;-54
2022/08/16 13:47:53;;;;;;;9.05;6.22;;;;;;;;;;5022995;28;20240;-54
2022/08/16 13:50:20;;;;;;;7.55;5.20;;;;;;;;;;5024914;28;20232;-57
2022/08/16 13:52:47;;;;;;;5.40;5.00;;;;;;;;;;5017616;28;20236;-54
2022/08/16 13:55:14;;;;;;;5.40;5.00;;;;;;;;;;5023038;28;20816;-54
2022/08/16 13:57:41;;;;;;;12.95;6.28;;;;;;;;;;5024253;28;20240;-56
2022/08/16 14:00:08;;;;;;;6.10;5.35;;;;;;;;;;5027155;28;20473;-55
2022/08/16 14:02:35;;;;;;;7.30;6.30;;;;;;;;;;5022773;28;20309;-56
2022/08/16 14:05:02;;;;;;;5.20;4.80;;;;;;;;;;5022282;28;20705;-53
2022/08/16 14:07:29;;;;;;;5.70;5.18;;;;;;;;;;5018461;28;20315;-57
2022/08/16 14:09:55;;;;;;;6.22;5.63;;;;;;;;;;5020119;28;20229;-54
2022/08/16 14:12:24;;;;;;;6.78;5.53;;;;;;;;;;5022144;28;20236;-54
2022/08/16 14:14:51;;;;;;;5.45;4.95;;;;;;;;;;5026415;28;20238;-55
2022/08/16 14:17:17;;;;;;;4.88;4.47;;;;;;;;;;5020785;28;20229;-54
2022/08/16 14:19:44;;;;;;;5.07;4.65;;;;;;;;;;5020901;28;20231;-54
2022/08/16 14:22:15;;;;;;;5.68;4.82;;;;;;;;;;5024313;28;20859;-54
2022/08/16 14:24:41;;;;;;;5.05;4.55;;;;;;;;;;5017161;28;20251;-54
2022/08/16 14:27:08;;;;;;;5.35;4.43;;;;;;;;;;5021769;28;20232;-54